Time;durP1;ratioP1;P1;durP2;ratioP2;P2;SDS_P1;SDS_P2;PMS_P1;PMS_P2;Temp;Humidity;BMP_temperature;BMP_pressure;BME280_temperature;BME280_humidity;BME280_pressure;Samples;Min_cycle;Max_cycle;Signal;HPM_P1;HPM_P2
2022/01/26 00:06:32;;;;;;;22.60;11.60;;;;;;;-4.71;73.68;-23681.38;5041917;28;20350;-74
2022/01/26 00:08:58;;;;;;;21.37;11.20;;;;;;;-4.14;74.04;-23697.50;5073386;28;20227;-75
2022/01/26 00:11:24;;;;;;;20.00;10.67;;;;;;;-4.53;73.60;-23686.56;5073588;28;20673;-75
2022/01/26 00:13:51;;;;;;;25.73;10.77;;;;;;;-4.15;72.81;-23697.38;5073632;28;20175;-75
2022/01/26 00:18:53;;;;;;;17.63;9.73;;;;;;;-4.08;71.83;-23699.25;5072328;28;20186;-75
2022/01/26 00:21:54;;;;;;;18.23;9.67;;;;;;;-4.02;71.22;-23700.97;5073132;28;20170;-75
2022/01/26 00:24:26;;;;;;;19.40;9.47;;;;;;;-4.08;70.24;-23699.38;5069217;28;20182;-73
2022/01/26 00:29:31;;;;;;;18.00;9.57;;;;;;;-4.20;69.85;-23695.78;5073049;28;20171;-73
2022/01/26 00:40:08;;;;;;;17.47;8.70;;;;;;;-4.14;68.32;-23697.50;5072812;28;20653;-73
2022/01/26 00:42:38;;;;;;;18.67;8.33;;;;;;;-3.84;67.85;-23706.16;5072804;28;20232;-74
2022/01/26 00:45:06;;;;;;;19.23;9.40;;;;;;;-3.71;67.72;-23709.88;5072950;28;20181;-74
2022/01/26 00:47:31;;;;;;;16.60;9.13;;;;;;;-3.77;68.84;-23708.00;5072985;28;20251;-74
2022/01/26 00:50:02;;;;;;;16.83;8.57;;;;;;;-3.92;69.91;-23703.84;5054584;28;20286;-74
2022/01/26 00:52:52;;;;;;;16.27;8.80;;;;;;;-4.08;71.22;-23699.38;5072689;28;20253;-74
2022/01/26 00:55:17;;;;;;;19.97;10.23;;;;;;;-4.49;71.90;-23687.56;5072198;28;20532;-73
2022/01/26 00:57:43;;;;;;;19.10;10.10;;;;;;;-4.46;71.35;-23688.59;5073561;28;20183;-74
2022/01/26 01:00:13;;;;;;;22.47;10.33;;;;;;;-4.14;71.68;-23697.66;5077014;28;20174;-74
2022/01/26 01:02:38;;;;;;;20.50;10.80;;;;;;;-4.52;72.26;-23686.84;5059482;28;20204;-73
2022/01/26 01:05:14;;;;;;;18.70;10.27;;;;;;;-4.69;72.60;-23681.97;5092264;28;20706;-74
2022/01/26 01:07:41;;;;;;;19.90;10.23;;;;;;;-4.28;72.46;-23693.47;5081464;28;20178;-74
2022/01/26 01:10:07;;;;;;;17.73;9.77;;;;;;;-4.58;72.90;-23684.97;5076927;28;20212;-74
2022/01/26 01:12:38;;;;;;;17.30;9.43;;;;;;;-4.54;71.92;-23686.13;5073267;28;20174;-75
2022/01/26 01:15:05;;;;;;;17.47;9.70;;;;;;;-4.37;72.63;-23690.88;5086053;28;20188;-75
2022/01/26 01:17:37;;;;;;;19.30;9.63;;;;;;;-4.36;71.64;-23691.31;5092396;28;20174;-75
2022/01/26 01:31:12;;;;;;;22.53;9.50;;;;;;;-4.58;68.49;-23684.97;4999079;28;20249;-74
2022/01/26 01:33:43;;;;;;;16.80;9.43;;;;;;;-4.27;67.23;-23693.91;5052307;28;20200;-73
2022/01/26 01:36:11;;;;;;;19.60;10.40;;;;;;;-3.82;66.18;-23706.72;5082738;28;20215;-73
2022/01/26 01:38:40;;;;;;;19.67;9.77;;;;;;;-4.07;65.78;-23699.53;5078418;28;20180;-74
2022/01/26 01:41:05;;;;;;;17.47;10.63;;;;;;;-3.88;64.83;-23705.00;5091974;28;20616;-74
2022/01/26 01:43:30;;;;;;;22.57;11.60;;;;;;;-3.91;64.83;-23704.00;5080497;28;20271;-74
2022/01/26 01:45:56;;;;;;;21.20;11.00;;;;;;;-3.91;65.37;-23704.00;5073940;28;20655;-74
2022/01/26 01:48:29;;;;;;;19.77;11.00;;;;;;;-3.91;65.40;-23704.00;5076585;28;20205;-74
2022/01/26 01:50:56;;;;;;;21.13;10.93;;;;;;;-4.51;66.36;-23687.00;5077041;28;20189;-73
2022/01/26 01:53:31;;;;;;;21.17;10.53;;;;;;;-4.65;66.55;-23683.09;5091972;28;20640;-74
2022/01/26 01:55:58;;;;;;;17.90;9.90;;;;;;;-4.05;66.97;-23700.09;5080405;28;20169;-74
2022/01/26 01:58:25;;;;;;;17.37;9.50;;;;;;;-4.39;67.44;-23690.31;5078906;28;20178;-74
2022/01/26 02:00:50;;;;;;;15.90;9.20;;;;;;;-5.10;68.18;-23670.16;5076447;28;20202;-74
2022/01/26 02:03:16;;;;;;;16.33;8.67;;;;;;;-4.18;67.50;-23696.34;5074805;28;20267;-74
2022/01/26 02:05:41;;;;;;;16.97;9.10;;;;;;;-4.54;67.98;-23686.28;5071051;28;20256;-74
2022/01/26 02:08:07;;;;;;;19.27;10.30;;;;;;;-4.23;68.38;-23695.06;5073703;28;20195;-74
2022/01/26 02:10:34;;;;;;;20.40;11.20;;;;;;;-4.25;69.22;-23694.47;5076132;28;20294;-74
2022/01/26 02:13:02;;;;;;;19.63;10.50;;;;;;;-4.41;68.86;-23689.88;5075991;28;20169;-74
2022/01/26 02:15:37;;;;;;;20.33;10.67;;;;;;;-4.59;69.35;-23684.84;5087864;28;20539;-74
2022/01/26 02:50:30;;;;;;;13.67;6.73;;;;;;;-3.67;62.82;-23711.03;5075302;28;20707;-74
2022/01/26 02:53:19;;;;;;;13.33;7.67;;;;;;;-3.76;62.60;-23708.44;5074243;28;20186;-74
2022/01/26 02:55:45;;;;;;;17.47;7.80;;;;;;;-3.88;62.45;-23704.84;5074433;28;20184;-74
2022/01/26 03:01:00;;;;;;;15.20;8.80;;;;;;;-3.85;62.63;-23705.72;5074472;28;20176;-74
2022/01/26 03:03:31;;;;;;;14.73;8.63;;;;;;;-3.29;63.54;-23721.69;5074707;28;20551;-74
2022/01/26 03:06:08;;;;;;;16.47;8.37;;;;;;;-3.83;63.69;-23706.44;5056506;28;20708;-74
2022/01/26 03:08:39;;;;;;;15.60;8.60;;;;;;;-3.34;63.47;-23720.38;5074722;28;20186;-74
2022/01/26 03:11:10;;;;;;;18.87;9.37;;;;;;;-3.79;63.91;-23707.44;5074310;28;20683;-74
2022/01/26 03:13:40;;;;;;;16.97;9.10;;;;;;;-3.19;62.64;-23724.56;5074214;28;20519;-74
2022/01/26 03:16:22;;;;;;;16.43;9.40;;;;;;;-3.45;61.76;-23717.09;5074459;28;20177;-74
2022/01/26 03:21:18;;;;;;;17.23;9.80;;;;;;;-2.76;61.34;-23736.78;5074510;28;20668;-74
2022/01/26 03:29:15;;;;;;;16.07;9.10;;;;;;;-3.32;61.52;-23720.97;5074515;28;20306;-74
2022/01/26 03:34:15;;;;;;;16.93;8.40;;;;;;;-3.28;61.35;-23722.13;5074131;28;20376;-75
2022/01/26 03:39:13;;;;;;;14.03;7.77;;;;;;;-3.08;61.95;-23727.72;5074112;28;20227;-74
2022/01/26 03:44:05;;;;;;;16.50;8.70;;;;;;;-2.80;62.91;-23735.78;5078188;28;20182;-74
2022/01/26 03:46:31;;;;;;;15.77;8.77;;;;;;;-2.90;62.87;-23732.91;5083231;28;20185;-74
2022/01/26 03:48:57;;;;;;;15.97;8.73;;;;;;;-2.58;62.21;-23741.94;5076265;28;20561;-74
2022/01/26 03:51:22;;;;;;;17.10;8.97;;;;;;;-3.06;63.23;-23728.16;5079729;28;20568;-74
2022/01/26 03:53:48;;;;;;;15.93;8.43;;;;;;;-2.53;62.74;-23743.38;5073824;28;20181;-74
2022/01/26 03:56:13;;;;;;;17.90;9.17;;;;;;;-2.50;63.29;-23744.09;5073972;28;20174;-75
2022/01/26 03:58:39;;;;;;;18.07;9.40;;;;;;;-2.70;62.88;-23738.66;5074145;28;20174;-74
2022/01/26 04:01:04;;;;;;;18.50;8.97;;;;;;;-2.74;63.72;-23737.34;5073400;28;20204;-74
2022/01/26 04:03:29;;;;;;;19.43;8.60;;;;;;;-2.54;62.55;-23743.09;5074017;28;20192;-74
2022/01/26 04:05:55;;;;;;;16.10;8.40;;;;;;;-2.81;63.06;-23735.47;5073799;28;20258;-74
2022/01/26 04:08:27;;;;;;;16.63;8.13;;;;;;;-2.84;62.97;-23734.47;5073906;28;20635;-75
2022/01/26 04:13:18;;;;;;;14.97;8.30;;;;;;;-2.80;61.51;-23735.78;5073414;28;20239;-74
2022/01/26 04:15:43;;;;;;;16.27;8.63;;;;;;;-2.53;61.27;-23743.25;5073346;28;20170;-74
2022/01/26 04:18:13;;;;;;;15.07;8.07;;;;;;;-2.99;62.16;-23730.16;5073684;28;20178;-74
2022/01/26 04:20:43;;;;;;;16.43;8.30;;;;;;;-2.61;62.45;-23740.94;5073326;28;20319;-74
2022/01/26 04:23:15;;;;;;;14.57;8.63;;;;;;;-2.75;62.53;-23737.22;5075188;28;20173;-74
2022/01/26 04:25:43;;;;;;;19.17;9.80;;;;;;;-2.84;62.12;-23734.63;5074951;28;20170;-74
2022/01/26 04:28:14;;;;;;;18.60;10.20;;;;;;;-2.70;61.74;-23738.50;5075420;28;20556;-74
2022/01/26 04:30:39;;;;;;;21.17;9.50;;;;;;;-2.65;62.34;-23739.78;5075155;28;20293;-74
2022/01/26 04:33:06;;;;;;;16.87;10.13;;;;;;;-2.85;61.84;-23734.19;5075677;28;20269;-74
2022/01/26 04:35:33;;;;;;;15.97;8.90;;;;;;;-3.19;62.14;-23724.56;5076305;28;20216;-74
2022/01/26 04:40:25;;;;;;;14.93;8.37;;;;;;;-3.31;63.12;-23721.25;5074516;28;20181;-74
2022/01/26 04:45:16;;;;;;;17.27;8.77;;;;;;;-2.86;62.54;-23733.91;5075067;28;20201;-74
2022/01/26 04:47:41;;;;;;;14.37;7.67;;;;;;;-3.11;62.45;-23726.84;5066125;28;20289;-74
2022/01/26 04:50:09;;;;;;;14.77;7.73;;;;;;;-3.10;62.88;-23727.00;5075551;28;20535;-73
2022/01/26 04:52:36;;;;;;;15.00;7.80;;;;;;;-2.87;61.88;-23733.63;5075036;28;20186;-73
2022/01/26 04:55:01;;;;;;;16.43;8.23;;;;;;;-3.14;60.97;-23726.13;5073775;28;20212;-73
2022/01/26 04:57:26;;;;;;;12.37;7.33;;;;;;;-2.64;60.58;-23740.09;5074586;28;20182;-73
2022/01/26 04:59:52;;;;;;;13.83;8.27;;;;;;;-3.16;60.05;-23725.41;5075046;28;20224;-74
2022/01/26 05:02:17;;;;;;;18.33;9.37;;;;;;;-2.71;60.98;-23738.22;5074155;28;20189;-74
2022/01/26 05:04:43;;;;;;;19.13;10.60;;;;;;;-2.84;62.18;-23734.63;5074282;28;20236;-73
2022/01/26 05:07:08;;;;;;;18.53;9.50;;;;;;;-2.95;62.63;-23731.47;5074395;28;20178;-73
2022/01/26 05:09:34;;;;;;;18.13;9.20;;;;;;;-2.87;62.38;-23733.75;5074997;28;20182;-73
2022/01/26 05:12:01;;;;;;;15.40;7.37;;;;;;;-3.02;62.47;-23729.44;5073229;28;20197;-73
2022/01/26 05:14:27;;;;;;;14.20;7.17;;;;;;;-2.90;62.23;-23732.91;5074462;28;20512;-74
2022/01/26 05:16:52;;;;;;;11.53;6.53;;;;;;;-2.90;62.62;-23732.91;5074882;28;20186;-73
2022/01/26 05:19:18;;;;;;;13.17;7.10;;;;;;;-3.21;62.79;-23723.97;5073040;28;20272;-73
2022/01/26 05:21:43;;;;;;;13.83;7.30;;;;;;;-2.92;64.42;-23732.31;5055689;28;20534;-73
2022/01/26 05:24:12;;;;;;;16.03;7.43;;;;;;;-3.25;64.35;-23722.84;5074368;28;20193;-75
2022/01/26 05:26:39;;;;;;;16.03;8.40;;;;;;;-3.26;64.32;-23722.69;5072672;28;20186;-74
2022/01/26 05:29:04;;;;;;;15.93;8.30;;;;;;;-2.98;64.15;-23730.59;5074463;28;20174;-74
2022/01/26 05:31:30;;;;;;;19.47;9.27;;;;;;;-2.62;64.83;-23740.81;5074454;28;20251;-75
2022/01/26 05:33:56;;;;;;;18.43;9.53;;;;;;;-2.62;65.25;-23740.81;5072463;28;20241;-75
2022/01/26 05:36:21;;;;;;;20.17;9.47;;;;;;;-2.64;64.17;-23740.22;5072162;28;20265;-74
2022/01/26 05:38:47;;;;;;;16.07;8.83;;;;;;;-2.75;63.10;-23737.22;5074698;28;20185;-74
2022/01/26 05:41:13;;;;;;;16.87;9.20;;;;;;;-2.49;62.74;-23744.53;5056025;28;20296;-75
2022/01/26 05:43:39;;;;;;;18.33;8.93;;;;;;;-2.69;62.67;-23738.94;5073469;28;20194;-75
2022/01/26 05:46:10;;;;;;;15.50;8.33;;;;;;;-2.72;62.50;-23737.94;5073628;28;20639;-75
2022/01/26 05:48:43;;;;;;;14.40;8.20;;;;;;;-2.68;62.64;-23739.06;5073479;28;20242;-75
2022/01/26 05:51:09;;;;;;;13.97;8.23;;;;;;;-2.50;63.09;-23744.09;5074582;28;20237;-75
2022/01/26 05:53:36;;;;;;;15.43;7.87;;;;;;;-2.57;63.37;-23742.25;5072466;28;20260;-75
2022/01/26 05:56:02;;;;;;;15.90;7.83;;;;;;;-3.13;64.07;-23726.28;5072117;28;20180;-75
2022/01/26 05:58:28;;;;;;;14.30;8.60;;;;;;;-2.50;64.04;-23744.09;5074267;28;20244;-74
2022/01/26 06:00:57;;;;;;;16.77;9.40;;;;;;;-2.97;63.61;-23730.88;5073135;28;20229;-76
2022/01/26 06:03:23;;;;;;;16.90;8.30;;;;;;;-2.77;63.32;-23736.63;5073022;28;20184;-76
2022/01/26 06:05:48;;;;;;;18.87;8.93;;;;;;;-2.74;63.53;-23737.34;5052699;28;20218;-79
2022/01/26 06:08:14;;;;;;;18.43;9.40;;;;;;;-2.99;63.26;-23730.31;5052435;28;21468;-77
2022/01/26 06:10:39;;;;;;;18.93;9.17;;;;;;;-2.49;63.47;-23744.38;5052378;28;20205;-79
2022/01/26 06:13:05;;;;;;;15.87;8.43;;;;;;;-2.60;63.47;-23741.38;5052577;28;20200;-77
2022/01/26 06:15:30;;;;;;;17.27;8.60;;;;;;;-2.50;63.43;-23744.09;5054549;28;20270;-77
2022/01/26 06:17:56;;;;;;;16.30;8.57;;;;;;;-2.41;62.69;-23746.69;5058122;28;20178;-78
2022/01/26 06:20:21;;;;;;;16.90;8.30;;;;;;;-1.95;83.34;-23759.75;5060505;28;20189;-79
2022/01/26 06:22:47;;;;;;;17.90;8.63;;;;;;;-2.10;63.26;-23755.59;5053871;28;20269;-76
2022/01/26 06:25:12;;;;;;;16.13;8.27;;;;;;;-2.23;62.45;-23751.88;5071898;28;20170;-76
2022/01/26 06:27:39;;;;;;;16.27;8.10;;;;;;;-2.20;61.95;-23752.72;5070834;28;20201;-74
2022/01/26 06:30:05;;;;;;;12.70;7.67;;;;;;;-2.14;62.37;-23754.44;5053574;28;20657;-74
2022/01/26 06:32:31;;;;;;;14.07;7.57;;;;;;;-2.12;62.44;-23755.03;5054422;28;20182;-75
2022/01/26 06:34:58;;;;;;;11.17;6.87;;;;;;;-1.75;61.17;-23765.50;5054716;28;20174;-75
2022/01/26 06:37:23;;;;;;;12.37;6.90;;;;;;;-2.00;60.52;-23758.31;5054906;28;20178;-74
2022/01/26 06:39:49;;;;;;;11.50;6.67;;;;;;;-2.07;60.69;-23756.47;5054629;28;20167;-75
2022/01/26 06:42:19;;;;;;;11.60;6.60;;;;;;;-1.72;60.11;-23766.22;5053599;28;20595;-75
2022/01/26 06:44:57;;;;;;;14.53;7.57;;;;;;;-1.92;60.40;-23760.63;5054692;28;20155;-75
2022/01/26 06:49:51;;;;;;;12.50;7.17;;;;;;;-1.58;61.31;-23770.38;5054397;28;20280;-75
2022/01/26 06:52:16;;;;;;;13.97;8.20;;;;;;;-1.62;60.77;-23769.09;5054358;28;20265;-76
2022/01/26 06:54:42;;;;;;;18.20;9.03;;;;;;;-1.41;61.34;-23775.13;5054745;28;20171;-75
2022/01/26 06:57:07;;;;;;;18.50;9.07;;;;;;;-1.42;61.61;-23774.81;5054764;28;20552;-75
2022/01/26 06:59:33;;;;;;;19.93;9.60;;;;;;;-1.53;61.25;-23771.69;5053236;28;20694;-76
2022/01/26 07:01:58;;;;;;;19.10;8.97;;;;;;;-1.00;61.74;-23786.88;5052835;28;20229;-75
2022/01/26 07:04:24;;;;;;;19.40;9.80;;;;;;;-0.99;61.93;-23787.03;5053029;28;20175;-76
2022/01/26 07:06:49;;;;;;;21.27;9.40;;;;;;;-1.40;62.69;-23775.41;5056415;28;20554;-76
2022/01/26 07:09:16;;;;;;;18.23;9.53;;;;;;;-0.96;62.22;-23787.88;5056266;28;20196;-75
2022/01/26 07:11:42;;;;;;;18.43;9.17;;;;;;;-1.19;61.95;-23781.44;5061407;28;20562;-74
2022/01/26 07:14:10;;;;;;;18.17;9.13;;;;;;;-1.00;60.41;-23786.88;5094460;28;20174;-75
2022/01/26 07:22:04;;;;;;;20.53;9.23;;;;;;;-0.71;61.14;-23795.06;5094176;28;20193;-77
2022/01/26 07:24:29;;;;;;;16.33;9.03;;;;;;;-0.64;61.11;-23796.91;5088137;28;20643;-77
2022/01/26 07:26:55;;;;;;;14.93;7.93;;;;;;;-0.44;61.37;-23802.66;5074004;28;20218;-74
2022/01/26 07:29:24;;;;;;;20.90;8.77;;;;;;;-0.52;61.73;-23800.34;5087826;28;20598;-76
2022/01/26 07:31:51;;;;;;;16.00;7.90;;;;;;;-0.57;61.66;-23798.91;5093494;28;20609;-74
2022/01/26 07:34:19;;;;;;;16.07;8.13;;;;;;;-0.53;61.09;-23800.06;5073560;28;20176;-76
2022/01/26 07:36:47;;;;;;;15.60;8.90;;;;;;;-0.69;61.67;-23795.63;5073400;28;20662;-76
2022/01/26 07:39:16;;;;;;;15.97;8.13;;;;;;;-0.58;61.41;-23798.78;5073460;28;20280;-75
2022/01/26 07:41:42;;;;;;;14.80;7.47;;;;;;;-0.86;60.93;-23790.59;5075040;28;20203;-76
2022/01/26 07:44:07;;;;;;;20.00;7.80;;;;;;;-0.43;60.97;-23802.78;5082159;28;20258;-76
2022/01/26 07:46:34;;;;;;;13.63;7.20;;;;;;;-0.15;60.49;-23810.97;5083092;28;20662;-77
2022/01/26 07:48:59;;;;;;;12.83;7.13;;;;;;;-0.42;60.54;-23803.06;5075568;28;20192;-74
2022/01/26 07:51:25;;;;;;;12.93;7.00;;;;;;;-0.52;61.38;-23800.50;5079501;28;20210;-75
2022/01/26 07:53:50;;;;;;;13.43;7.20;;;;;;;-0.02;61.29;-23814.69;5055384;28;20184;-74
2022/01/26 07:56:16;;;;;;;14.80;7.57;;;;;;;-0.24;62.47;-23808.22;5073374;28;20178;-77
2022/01/26 07:58:42;;;;;;;14.47;7.47;;;;;;;-0.40;62.54;-23803.78;5055061;28;20199;-76
2022/01/26 08:01:08;;;;;;;13.83;7.70;;;;;;;0.20;62.39;-23820.84;5073428;28;20218;-76
2022/01/26 08:03:34;;;;;;;15.80;8.10;;;;;;;0.00;62.23;-23815.25;5055315;28;20176;-76
2022/01/26 08:06:04;;;;;;;13.90;8.57;;;;;;;-0.13;63.31;-23811.38;5064021;28;20713;-75
2022/01/26 08:08:30;;;;;;;17.27;8.50;;;;;;;0.00;63.62;-23815.25;5059648;28;20363;-76
2022/01/26 08:10:59;;;;;;;15.83;9.20;;;;;;;0.05;63.02;-23816.53;5076865;28;20696;-76
2022/01/26 08:13:25;;;;;;;14.27;8.40;;;;;;;0.00;63.73;-23815.09;5079908;28;20191;-76
2022/01/26 08:15:56;;;;;;;13.23;7.70;;;;;;;0.11;64.20;-23818.25;5084622;28;20651;-75
2022/01/26 08:18:22;;;;;;;12.83;7.10;;;;;;;0.30;64.06;-23823.69;5078677;28;20228;-74
2022/01/26 08:20:47;;;;;;;12.63;7.73;;;;;;;0.10;64.46;-23817.81;5085435;28;20187;-74
2022/01/26 08:23:13;;;;;;;19.53;8.23;;;;;;;0.24;65.10;-23821.84;5063249;28;20421;-74
2022/01/26 08:25:38;;;;;;;19.13;8.40;;;;;;;0.29;65.22;-23823.41;5061395;28;20190;-73
2022/01/26 08:28:19;;;;;;;12.50;7.77;;;;;;;-0.08;65.08;-23812.97;5073840;28;20178;-75
2022/01/26 08:30:44;;;;;;;15.47;8.43;;;;;;;0.34;65.28;-23824.84;5066440;28;20545;-76
2022/01/26 08:33:10;;;;;;;15.47;8.17;;;;;;;-0.15;65.18;-23810.81;5066136;28;20195;-74
2022/01/26 08:35:36;;;;;;;16.37;8.30;;;;;;;0.54;65.10;-23830.44;5082294;28;20238;-75
2022/01/26 08:38:02;;;;;;;16.17;9.00;;;;;;;0.07;65.29;-23817.13;5073173;28;20199;-74
2022/01/26 08:40:27;;;;;;;16.30;7.63;;;;;;;0.08;65.41;-23817.41;5084090;28;20185;-75
2022/01/26 08:42:54;;;;;;;16.93;8.40;;;;;;;0.41;64.86;-23826.84;5092383;28;20550;-74
2022/01/26 08:45:19;;;;;;;14.67;8.13;;;;;;;0.62;64.90;-23832.72;5076915;28;20205;-75
2022/01/26 08:47:47;;;;;;;16.47;8.27;;;;;;;0.36;65.10;-23825.28;5081831;28;20669;-75
2022/01/26 08:50:13;;;;;;;22.63;9.27;;;;;;;0.57;64.87;-23831.28;5078850;28;20288;-74
2022/01/26 08:52:38;;;;;;;16.33;9.00;;;;;;;0.62;64.75;-23832.56;5081097;28;20351;-74
2022/01/26 08:55:05;;;;;;;16.63;9.10;;;;;;;0.60;64.95;-23832.13;5066048;28;20254;-74
2022/01/26 08:57:30;;;;;;;18.30;9.97;;;;;;;0.71;64.68;-23835.28;5063803;28;20186;-74
2022/01/26 08:59:56;;;;;;;19.70;10.03;;;;;;;0.53;64.87;-23830.13;5079094;28;20640;-75
2022/01/26 09:02:22;;;;;;;16.67;9.43;;;;;;;0.72;64.50;-23835.56;5076930;28;20252;-77
2022/01/26 09:04:47;;;;;;;22.73;10.33;;;;;;;0.70;64.42;-23834.84;5079069;28;20303;-74
2022/01/26 09:07:15;;;;;;;18.10;9.43;;;;;;;0.57;64.82;-23831.28;5092187;28;20154;-76
2022/01/26 09:09:45;;;;;;;18.13;9.40;;;;;;;0.46;65.13;-23828.13;5080528;28;20192;-75
2022/01/26 09:12:13;;;;;;;18.87;9.17;;;;;;;0.08;64.95;-23817.41;5082533;28;20272;-76
2022/01/26 09:14:41;;;;;;;19.03;10.40;;;;;;;0.68;64.68;-23834.28;5064973;28;20190;-76
2022/01/26 09:17:08;;;;;;;25.13;10.73;;;;;;;0.99;64.39;-23843.00;5083089;28;20695;-76
2022/01/26 09:19:34;;;;;;;17.07;9.90;;;;;;;0.69;64.04;-23834.72;5083184;28;20280;-76
2022/01/26 09:22:11;;;;;;;21.87;10.60;;;;;;;1.02;64.23;-23843.88;5059748;28;20216;-75
2022/01/26 09:24:39;;;;;;;20.60;10.70;;;;;;;1.15;64.17;-23847.59;5068448;28;20280;-75
2022/01/26 09:27:07;;;;;;;18.77;9.63;;;;;;;1.09;63.46;-23845.88;5060815;28;20193;-75
2022/01/26 09:29:34;;;;;;;18.30;9.27;;;;;;;1.14;63.35;-23847.31;5062963;28;20668;-79
2022/01/26 09:32:00;;;;;;;19.60;10.23;;;;;;;0.98;64.17;-23842.72;5081967;28;20303;-76
2022/01/26 09:34:28;;;;;;;20.27;10.63;;;;;;;1.18;64.60;-23848.44;5053281;28;20228;-78
2022/01/26 09:36:54;;;;;;;17.90;9.23;;;;;;;1.09;64.81;-23845.88;5082621;28;20185;-76
2022/01/26 09:39:21;;;;;;;19.73;9.40;;;;;;;1.20;66.05;-23849.03;5056569;28;20274;-75
2022/01/26 09:41:48;;;;;;;16.10;9.23;;;;;;;1.11;66.36;-23846.44;5061196;28;20194;-76
2022/01/26 09:44:14;;;;;;;17.33;10.00;;;;;;;1.34;66.37;-23853.03;5055733;28;20630;-75
2022/01/26 09:46:40;;;;;;;16.27;8.77;;;;;;;1.54;66.00;-23858.75;5080281;28;20190;-75
2022/01/26 09:49:06;;;;;;;15.03;9.40;;;;;;;1.15;65.31;-23847.59;5072165;28;20620;-75
2022/01/26 09:51:39;;;;;;;17.47;8.90;;;;;;;1.52;65.39;-23858.16;5081200;28;20203;-74
2022/01/26 09:54:12;;;;;;;17.17;9.57;;;;;;;1.50;65.73;-23857.59;5072433;28;20189;-74
2022/01/26 09:56:38;;;;;;;17.37;9.67;;;;;;;1.55;65.96;-23859.03;5080234;28;20222;-75
2022/01/26 09:59:06;;;;;;;22.30;10.33;;;;;;;1.74;65.75;-23864.31;5071569;28;20213;-73
2022/01/26 10:01:42;;;;;;;22.13;9.90;;;;;;;1.71;66.62;-23863.59;5081606;28;20209;-74
2022/01/26 10:04:39;;;;;;;18.47;9.90;;;;;;;1.56;66.69;-23859.31;5072427;28;20209;-75
2022/01/26 10:18:04;;;;;;;16.73;9.43;;;;;;;1.66;66.80;-23862.19;5081390;28;20248;-75
2022/01/26 10:20:49;;;;;;;18.03;9.63;;;;;;;1.98;66.79;-23871.03;5076736;28;20183;-82
2022/01/26 10:23:22;;;;;;;21.00;10.00;;;;;;;2.06;67.09;-23873.31;5068348;28;20185;-76
2022/01/26 10:26:05;;;;;;;18.77;10.80;;;;;;;2.33;66.67;-23881.03;5089785;28;20190;-76
2022/01/26 10:28:53;;;;;;;22.17;9.70;;;;;;;1.95;66.56;-23870.16;5079925;28;20181;-79
2022/01/26 10:31:23;;;;;;;17.77;9.70;;;;;;;2.13;66.13;-23875.31;5084290;28;20205;-76
2022/01/26 10:33:57;;;;;;;17.77;10.30;;;;;;;2.22;66.31;-23878.03;5088122;28;20651;-74
2022/01/26 10:36:24;;;;;;;19.33;10.03;;;;;;;1.93;66.09;-23869.75;5080379;28;20185;-75
2022/01/26 10:39:02;;;;;;;17.67;9.93;;;;;;;2.22;66.76;-23877.88;5052750;28;20189;-74
2022/01/26 10:41:28;;;;;;;21.40;10.03;;;;;;;2.23;67.93;-23878.31;5079372;28;20240;-75
2022/01/26 10:43:56;;;;;;;17.63;10.17;;;;;;;2.35;67.29;-23881.59;5056054;28;20180;-72
2022/01/26 10:46:26;;;;;;;19.23;10.47;;;;;;;2.59;67.26;-23888.31;5094130;28;20174;-80
2022/01/26 10:49:06;;;;;;;17.90;9.93;;;;;;;2.13;66.54;-23875.47;5077428;28;20245;-78
2022/01/26 10:51:51;;;;;;;21.67;11.23;;;;;;;2.71;67.33;-23891.72;5076529;28;20246;-76
2022/01/26 10:54:27;;;;;;;18.73;10.57;;;;;;;2.48;68.27;-23885.16;5068930;28;20586;-79
2022/01/26 10:56:53;;;;;;;23.17;10.53;;;;;;;2.62;67.85;-23889.31;5058572;28;20181;-77
2022/01/26 10:59:19;;;;;;;19.30;10.53;;;;;;;2.71;68.63;-23891.72;5057033;28;20194;-77
2022/01/26 11:01:44;;;;;;;19.07;10.37;;;;;;;2.57;68.81;-23887.88;5063375;28;20196;-77
2022/01/26 11:04:10;;;;;;;25.17;12.07;;;;;;;2.26;69.75;-23878.88;5060673;28;20281;-73
2022/01/26 11:06:40;;;;;;;21.80;12.20;;;;;;;2.78;69.28;-23893.72;5081394;28;20233;-72
2022/01/26 11:09:12;;;;;;;22.00;12.00;;;;;;;2.66;69.00;-23890.44;5085082;28;20199;-74
2022/01/26 11:11:40;;;;;;;21.50;11.40;;;;;;;2.68;69.00;-23891.00;5090132;28;20286;-76
2022/01/26 11:14:21;;;;;;;21.63;11.37;;;;;;;2.81;69.20;-23894.44;5064476;28;20618;-75
2022/01/26 11:17:00;;;;;;;21.27;11.77;;;;;;;2.63;69.75;-23889.59;5080735;28;20246;-75
2022/01/26 11:19:25;;;;;;;23.10;11.90;;;;;;;3.08;70.17;-23902.16;5056460;28;20341;-74
2022/01/26 11:21:51;;;;;;;23.37;11.40;;;;;;;3.12;69.75;-23903.28;5073936;28;20333;-76
2022/01/26 11:24:24;;;;;;;19.93;11.47;;;;;;;2.88;70.19;-23896.44;5064438;28;20196;-76
2022/01/26 11:27:04;;;;;;;20.23;11.43;;;;;;;2.38;70.71;-23882.31;5065785;28;20192;-76
2022/01/26 11:29:34;;;;;;;20.10;11.17;;;;;;;2.95;70.45;-23898.59;5073846;28;20239;-75
2022/01/26 11:32:10;;;;;;;23.27;11.67;;;;;;;3.01;70.54;-23900.16;5082687;28;20307;-75
2022/01/26 11:34:36;;;;;;;19.80;11.43;;;;;;;2.98;70.20;-23899.28;5073949;28;20250;-75
2022/01/26 11:37:05;;;;;;;22.33;11.80;;;;;;;3.29;68.90;-23908.00;5092047;28;20181;-75
2022/01/26 11:45:12;;;;;;;20.67;11.83;;;;;;;3.35;69.23;-23909.84;5074476;28;20216;-76
2022/01/26 11:47:59;;;;;;;22.03;12.13;;;;;;;4.02;69.16;-23928.66;5082309;28;20185;-76
2022/01/26 11:50:26;;;;;;;25.57;12.90;;;;;;;4.35;69.58;-23938.06;5082049;28;20214;-75
2022/01/26 11:52:58;;;;;;;24.43;13.43;;;;;;;4.43;69.76;-23940.19;5075802;28;20181;-76
2022/01/26 11:55:36;;;;;;;21.93;10.53;;;;;;;4.22;70.00;-23934.22;5085284;28;20177;-73
2022/01/26 11:58:26;;;;;;;22.83;11.80;;;;;;;4.89;67.49;-23953.13;5075105;28;20197;-75
2022/01/26 12:01:23;;;;;;;26.87;10.87;;;;;;;4.90;68.00;-23953.44;5076991;28;20190;-74
2022/01/26 12:03:57;;;;;;;16.17;8.17;;;;;;;4.85;70.29;-23952.00;5078898;28;20646;-74
2022/01/26 12:06:30;;;;;;;20.70;8.87;;;;;;;4.72;70.33;-23948.31;5064254;28;20228;-76
2022/01/26 12:08:58;;;;;;;19.47;7.93;;;;;;;4.28;71.55;-23936.06;5072304;28;20606;-75
2022/01/26 12:11:28;;;;;;;17.93;8.90;;;;;;;4.35;72.25;-23937.91;5054585;28;20217;-73
2022/01/26 12:14:13;;;;;;;15.23;8.93;;;;;;;4.58;72.37;-23944.31;5078480;28;20536;-75
2022/01/26 12:16:43;;;;;;;20.10;8.90;;;;;;;4.30;71.38;-23936.50;5093204;28;20647;-73
2022/01/26 12:38:17;;;;;;;22.03;11.60;;;;;;;4.79;70.30;-23950.28;5074467;28;20192;-75
2022/01/26 12:43:35;;;;;;;26.80;13.73;;;;;;;4.70;70.54;-23947.72;5086090;28;20224;-75
2022/01/26 12:46:04;;;;;;;20.47;12.03;;;;;;;4.45;70.78;-23940.75;5073665;28;20710;-74
2022/01/26 12:48:34;;;;;;;26.63;12.93;;;;;;;4.62;70.13;-23945.47;5092108;28;20248;-74
2022/01/26 12:51:01;;;;;;;22.70;13.20;;;;;;;4.43;70.53;-23940.34;5086834;28;20209;-76
2022/01/26 12:53:28;;;;;;;24.90;12.67;;;;;;;4.61;70.56;-23945.31;5072033;28;20637;-74
2022/01/26 12:55:59;;;;;;;22.13;11.33;;;;;;;4.56;71.61;-23943.88;5070386;28;20268;-74
2022/01/26 12:58:27;;;;;;;22.67;11.97;;;;;;;4.49;70.85;-23941.91;5090501;28;20162;-74
2022/01/26 13:00:52;;;;;;;21.27;12.23;;;;;;;4.86;69.82;-23952.28;5075187;28;20181;-74
2022/01/26 13:03:19;;;;;;;23.90;11.77;;;;;;;4.49;70.58;-23941.91;5080081;28;20609;-74
2022/01/26 13:05:45;;;;;;;26.00;11.40;;;;;;;4.49;70.41;-23941.91;5083128;28;20228;-74
2022/01/26 13:08:11;;;;;;;22.70;11.80;;;;;;;4.58;71.33;-23944.31;5071695;28;20185;-74
2022/01/26 13:10:37;;;;;;;25.40;13.20;;;;;;;4.62;70.55;-23945.59;5085479;28;20693;-75
2022/01/26 13:13:14;;;;;;;22.67;12.20;;;;;;;4.56;71.53;-23943.75;5092086;28;20240;-74
2022/01/26 13:18:28;;;;;;;27.07;12.47;;;;;;;5.11;70.12;-23959.41;5077848;28;20198;-73
2022/01/26 13:21:14;;;;;;;23.87;11.90;;;;;;;4.69;69.72;-23947.59;5077858;28;20181;-74
2022/01/26 13:23:54;;;;;;;23.53;11.60;;;;;;;4.63;70.26;-23945.75;5080324;28;20169;-75
2022/01/26 13:26:35;;;;;;;27.83;12.57;;;;;;;4.61;70.60;-23945.31;5080172;28;20660;-74
2022/01/26 13:29:28;;;;;;;21.00;11.73;;;;;;;4.81;71.22;-23951.00;5072437;28;20174;-74
2022/01/26 13:32:23;;;;;;;23.97;12.17;;;;;;;4.80;70.97;-23950.72;5078792;28;20204;-75
2022/01/26 13:37:38;;;;;;;33.60;16.93;;;;;;;4.50;71.61;-23942.03;5078627;28;20561;-76
2022/01/26 13:50:29;;;;;;;13.97;6.50;;;;;;;4.43;71.10;-23940.34;5075237;28;20266;-75
2022/01/26 14:00:20;;;;;;;15.13;7.70;;;;;;;4.67;71.71;-23947.03;5073980;28;20181;-76
2022/01/26 14:02:49;;;;;;;14.20;7.27;;;;;;;4.19;72.52;-23933.50;5056385;28;20677;-76